Sackville, Canada
Current Conditions -  °F | °C
As of 6:30 AM on Thursday 27 Nov 2014 (Local Time) from CYQM Reporting Station
Light Snow Light Snow  
Wind Chill: 16°   Ceiling: 600
Heat Index: 30°   Visibility: 0.5mi
Dew Point: 28°   Wind: 28mph
Humidity: 93%   Direction: 30°NNE
Pressure: 29.59"   Gusts: 39mph
Location:  45.9°N, 64.37°W
Report Text: CYQM 271030Z 03024G34KT 1/2SM R06/3000FT/N R29/2800FT/N -SN BLSN OVC006 M01/M02 A2959 RMK SF8 PRESRR SLP023
Loading
Personal Weather Stations






























Interactive Weather Map New forecast layout! Learn more

10-Day Weather Forecast

Advertisements
Track Severe Weather on mobile